createdAt,value
2018-06-30T00:02:18.820Z,87.02
2018-06-30T00:04:51.918Z,87.13
2018-06-30T00:07:21.678Z,86.76
2018-06-30T00:09:50.153Z,86.94
2018-06-30T00:12:18.669Z,87.09
2018-06-30T00:14:47.661Z,86.96
2018-06-30T00:17:16.183Z,86.52
2018-06-30T00:19:44.674Z,86.35
2018-06-30T00:22:13.280Z,86.20
2018-06-30T00:24:41.796Z,86.46
2018-06-30T00:27:16.174Z,86.38
2018-06-30T00:29:44.821Z,86.42
2018-06-30T00:32:13.322Z,86.85
2018-06-30T00:34:41.975Z,86.94
2018-06-30T00:37:10.482Z,86.80
2018-06-30T00:39:38.949Z,86.68
2018-06-30T00:42:07.454Z,86.83
2018-06-30T00:44:36.075Z,86.72
2018-06-30T00:47:04.565Z,87.05
2018-06-30T00:49:33.033Z,86.85
2018-06-30T00:52:01.542Z,86.85
2018-06-30T00:54:30.031Z,86.99
2018-06-30T00:56:58.570Z,86.93
2018-06-30T00:59:27.077Z,86.85
2018-06-30T01:01:55.553Z,87.19
2018-06-30T01:04:24.316Z,86.99
2018-06-30T01:06:52.857Z,87.03
2018-06-30T01:09:21.429Z,87.19
2018-06-30T01:11:50.379Z,87.58
2018-06-30T01:14:18.881Z,87.33
2018-06-30T01:16:47.385Z,87.14
2018-06-30T01:19:15.902Z,87.47
2018-06-30T01:21:44.761Z,87.52
2018-06-30T01:24:13.302Z,87.07
2018-06-30T01:26:41.778Z,87.20
2018-06-30T01:29:10.322Z,87.36
2018-06-30T01:31:38.813Z,87.36
2018-06-30T01:34:07.324Z,87.56
2018-06-30T01:36:35.841Z,87.31
2018-06-30T01:39:06.147Z,87.58
2018-06-30T01:41:34.769Z,87.31
2018-06-30T01:44:03.797Z,87.35
2018-06-30T01:46:32.369Z,87.50
2018-06-30T01:49:00.857Z,87.66
2018-06-30T01:51:29.660Z,87.44
2018-06-30T01:53:58.197Z,87.11
2018-06-30T01:56:26.887Z,87.04
2018-06-30T01:58:55.374Z,87.04
2018-06-30T02:01:23.849Z,87.27
2018-06-30T02:03:52.464Z,87.19
2018-06-30T02:06:21.017Z,87.14
2018-06-30T02:08:49.678Z,86.85
2018-06-30T02:11:18.242Z,87.16
2018-06-30T02:13:46.733Z,87.00
2018-06-30T02:16:15.259Z,87.34
2018-06-30T02:18:43.797Z,87.12
2018-06-30T02:21:12.331Z,87.09
2018-06-30T02:23:40.849Z,87.11
2018-06-30T02:26:09.316Z,87.02
2018-06-30T02:28:37.849Z,86.86
2018-06-30T02:31:06.858Z,86.89
2018-06-30T02:33:35.342Z,86.71
2018-06-30T02:36:03.810Z,86.58
2018-06-30T02:38:32.453Z,87.21
2018-06-30T02:41:00.975Z,86.89
2018-06-30T02:43:29.425Z,87.20
2018-06-30T02:45:57.946Z,87.19
2018-06-30T02:48:26.545Z,87.11
2018-06-30T02:50:55.081Z,86.87
2018-06-30T02:53:23.583Z,86.96
2018-06-30T02:55:52.098Z,86.88
2018-06-30T02:58:20.650Z,86.85
2018-06-30T03:00:49.367Z,86.72
2018-06-30T03:03:18.439Z,86.69
2018-06-30T03:05:46.982Z,86.47
2018-06-30T03:08:15.689Z,87.01
2018-06-30T03:10:44.438Z,86.70
2018-06-30T03:13:13.014Z,86.71
2018-06-30T03:15:41.550Z,86.60
2018-06-30T03:18:10.517Z,86.77
2018-06-30T03:20:39.214Z,86.71
2018-06-30T03:23:08.011Z,86.36
2018-06-30T03:25:36.572Z,86.42
2018-06-30T03:28:05.166Z,86.64
2018-06-30T03:30:33.657Z,86.54
2018-06-30T03:33:02.261Z,86.66
2018-06-30T03:35:30.775Z,86.56
2018-06-30T03:37:59.310Z,86.60
2018-06-30T03:40:27.805Z,86.10
2018-06-30T03:42:56.862Z,86.15
2018-06-30T03:45:25.357Z,86.08
2018-06-30T03:47:53.855Z,86.10
2018-06-30T03:50:22.450Z,86.10
2018-06-30T03:52:51.025Z,85.66
2018-06-30T03:55:19.578Z,85.79
2018-06-30T03:57:48.106Z,85.59
2018-06-30T04:00:16.774Z,85.26
2018-06-30T04:02:45.265Z,85.18
2018-06-30T04:05:13.770Z,84.73
2018-06-30T04:07:42.269Z,84.72
2018-06-30T04:10:10.756Z,84.03
2018-06-30T04:12:39.319Z,81.20
2018-06-30T04:15:07.812Z,78.16
2018-06-30T04:17:36.319Z,78.34
2018-06-30T04:20:04.995Z,78.27
2018-06-30T04:22:33.514Z,77.23
2018-06-30T04:25:01.993Z,75.86
2018-06-30T04:27:30.473Z,74.14
2018-06-30T04:29:58.969Z,73.74
2018-06-30T04:32:27.619Z,75.20
2018-06-30T04:34:56.102Z,76.18
2018-06-30T04:37:24.565Z,76.91
2018-06-30T04:39:53.050Z,77.84
2018-06-30T04:42:21.546Z,78.94
2018-06-30T04:44:50.053Z,78.35
2018-06-30T04:47:18.578Z,78.29
2018-06-30T04:49:47.053Z,76.87
2018-06-30T04:52:15.535Z,75.35
2018-06-30T04:54:44.138Z,76.09
2018-06-30T04:57:12.783Z,76.50
2018-06-30T04:59:41.256Z,76.95
2018-06-30T05:02:09.762Z,76.68
2018-06-30T05:04:38.701Z,76.71
2018-06-30T05:07:07.202Z,72.54
2018-06-30T05:09:35.710Z,68.88
2018-06-30T05:12:04.271Z,66.30
2018-06-30T05:14:32.787Z,64.20
2018-06-30T05:17:01.298Z,63.45
2018-06-30T05:19:29.776Z,63.44
2018-06-30T05:21:58.287Z,65.27
2018-06-30T05:24:26.898Z,67.87
2018-06-30T05:26:55.416Z,64.46
2018-06-30T05:29:23.930Z,64.77
2018-06-30T05:31:52.445Z,65.62
2018-06-30T05:34:20.913Z,61.63
2018-06-30T05:36:49.499Z,61.73
2018-06-30T05:39:18.028Z,61.90
2018-06-30T05:41:46.497Z,62.52
2018-06-30T05:44:14.966Z,60.55
2018-06-30T05:46:43.693Z,58.88
2018-06-30T05:49:12.162Z,56.21
2018-06-30T05:51:40.638Z,56.21
2018-06-30T05:54:09.287Z,56.46
2018-06-30T05:56:37.773Z,60.02
2018-06-30T05:59:06.281Z,60.10
2018-06-30T06:01:34.820Z,59.52
2018-06-30T06:04:03.358Z,58.51
2018-06-30T06:06:31.837Z,57.92
2018-06-30T06:09:00.313Z,59.66
2018-06-30T06:11:28.858Z,58.79
2018-06-30T06:13:57.373Z,58.86
2018-06-30T06:16:25.845Z,56.56
2018-06-30T06:18:54.321Z,56.88
2018-06-30T06:21:22.903Z,56.78
2018-06-30T06:23:51.443Z,56.55
2018-06-30T06:26:19.962Z,56.77
2018-06-30T06:28:48.541Z,56.57
2018-06-30T06:31:17.050Z,53.62
2018-06-30T06:33:45.529Z,51.60
2018-06-30T06:36:14.014Z,52.03
2018-06-30T06:38:42.489Z,54.29
2018-06-30T06:41:10.973Z,54.37
2018-06-30T06:43:39.463Z,51.56
2018-06-30T06:46:08.620Z,53.22
2018-06-30T06:48:37.110Z,52.09
2018-06-30T06:51:05.656Z,50.47
2018-06-30T06:53:34.191Z,50.43
2018-06-30T06:56:02.717Z,50.88
2018-06-30T06:58:31.286Z,50.36
2018-06-30T07:00:59.925Z,49.92
2018-06-30T07:03:28.421Z,48.56
2018-06-30T07:05:56.921Z,47.66
2018-06-30T07:08:25.441Z,48.81
2018-06-30T07:10:53.958Z,48.25
2018-06-30T07:13:23.297Z,46.07
2018-06-30T07:15:52.150Z,47.54
2018-06-30T07:18:20.477Z,46.49
2018-06-30T07:20:49.043Z,46.16
2018-06-30T07:23:17.633Z,46.79
2018-06-30T07:25:46.106Z,48.14
2018-06-30T07:28:14.582Z,47.28
2018-06-30T07:30:43.608Z,47.45
2018-06-30T07:33:12.089Z,47.71
2018-06-30T07:35:40.617Z,47.59
2018-06-30T07:38:09.114Z,48.65
2018-06-30T07:40:37.588Z,47.90
2018-06-30T07:43:06.609Z,46.63
2018-06-30T07:45:35.047Z,45.76
2018-06-30T07:48:03.551Z,45.76
2018-06-30T07:50:32.109Z,45.15
2018-06-30T07:53:00.670Z,45.71
2018-06-30T07:55:29.246Z,45.70
2018-06-30T07:57:57.714Z,44.99
2018-06-30T08:00:26.529Z,44.67
2018-06-30T08:02:55.157Z,45.19
2018-06-30T08:05:23.674Z,42.67
2018-06-30T08:07:52.225Z,43.29
2018-06-30T08:10:21.639Z,42.95
2018-06-30T08:12:50.278Z,42.11
2018-06-30T08:15:18.794Z,40.91
2018-06-30T08:17:47.272Z,40.05
2018-06-30T08:20:15.758Z,39.70
2018-06-30T08:22:44.305Z,39.09
2018-06-30T08:25:12.773Z,38.88
2018-06-30T08:27:41.342Z,39.10
2018-06-30T08:30:09.869Z,38.10
2018-06-30T08:32:38.385Z,38.54
2018-06-30T08:35:06.959Z,37.61
2018-06-30T08:37:35.540Z,37.03
2018-06-30T08:40:04.090Z,35.31
2018-06-30T08:42:32.615Z,35.20
2018-06-30T08:45:01.493Z,34.69
2018-06-30T08:47:30.133Z,34.13
2018-06-30T08:49:58.740Z,34.11
2018-06-30T08:52:27.254Z,34.28
2018-06-30T08:54:56.080Z,34.03
2018-06-30T08:57:24.665Z,34.19
2018-06-30T08:59:53.340Z,34.72
2018-06-30T09:02:21.930Z,35.07
2018-06-30T09:06:19.991Z,34.19
2018-06-30T09:08:48.605Z,34.25
2018-06-30T09:11:17.226Z,34.08
2018-06-30T09:13:45.709Z,34.97
2018-06-30T09:16:14.228Z,34.54
2018-06-30T09:18:43.039Z,33.30
2018-06-30T09:21:11.916Z,33.49
2018-06-30T09:23:40.421Z,32.44
2018-06-30T09:26:08.906Z,32.53
2018-06-30T09:28:37.564Z,32.15
2018-06-30T09:31:06.138Z,32.42
2018-06-30T09:33:34.669Z,32.52
2018-06-30T09:36:03.336Z,31.58
2018-06-30T09:38:32.425Z,31.48
2018-06-30T09:41:01.126Z,32.02
2018-06-30T09:43:29.589Z,32.26
2018-06-30T09:45:58.565Z,31.52
2018-06-30T09:48:27.088Z,31.57
2018-06-30T09:50:55.585Z,31.15
2018-06-30T09:53:24.125Z,31.77
2018-06-30T09:55:52.604Z,31.80
2018-06-30T09:58:21.185Z,31.81
2018-06-30T10:00:50.751Z,30.37
2018-06-30T10:03:19.682Z,31.23
2018-06-30T10:05:48.185Z,30.51
2018-06-30T10:08:16.722Z,29.54
2018-06-30T10:10:45.319Z,31.35
2018-06-30T10:13:13.817Z,30.17
2018-06-30T10:15:42.405Z,30.72
2018-06-30T10:18:11.266Z,30.04
2018-06-30T10:20:39.819Z,29.23
2018-06-30T10:23:08.299Z,29.83
2018-06-30T10:25:36.848Z,29.79
2018-06-30T10:28:05.409Z,30.54
2018-06-30T10:30:33.946Z,30.04
2018-06-30T10:33:02.647Z,29.76
2018-06-30T10:35:31.394Z,30.06
2018-06-30T10:38:00.066Z,31.04
2018-06-30T10:40:28.725Z,29.83
2018-06-30T10:42:57.206Z,29.37
2018-06-30T10:45:25.798Z,28.96
2018-06-30T10:47:54.378Z,30.02
2018-06-30T10:50:22.945Z,30.37
2018-06-30T10:52:51.483Z,29.75
2018-06-30T10:55:19.976Z,29.81
2018-06-30T10:57:48.610Z,29.70
2018-06-30T11:00:17.203Z,29.85
2018-06-30T11:02:45.645Z,31.30
2018-06-30T11:05:14.273Z,29.27
2018-06-30T11:07:42.710Z,29.59
2018-06-30T11:10:11.358Z,30.59
2018-06-30T11:12:40.176Z,29.16
2018-06-30T11:15:09.198Z,29.59
2018-06-30T11:17:37.722Z,30.71
2018-06-30T11:20:06.329Z,29.14
2018-06-30T11:22:34.832Z,29.29
2018-06-30T11:25:03.357Z,28.09
2018-06-30T11:27:31.870Z,29.53
2018-06-30T11:30:00.384Z,28.26
2018-06-30T11:32:28.884Z,27.67
2018-06-30T11:34:57.388Z,28.33
2018-06-30T11:37:25.871Z,28.77
2018-06-30T11:39:55.033Z,29.13
2018-06-30T11:42:23.538Z,28.59
2018-06-30T11:44:52.064Z,28.66
2018-06-30T11:47:20.754Z,28.77
2018-06-30T11:49:49.289Z,29.61
2018-06-30T11:52:18.262Z,28.12
2018-06-30T11:54:46.754Z,27.96
2018-06-30T11:57:15.238Z,29.07
2018-06-30T11:59:43.757Z,28.53
2018-06-30T12:02:12.386Z,28.08
2018-06-30T12:04:40.753Z,29.06
2018-06-30T12:07:09.414Z,28.92
2018-06-30T12:09:37.958Z,29.03
2018-06-30T12:12:06.474Z,28.69
2018-06-30T12:14:34.954Z,28.37
2018-06-30T12:17:03.827Z,28.95
2018-06-30T12:19:32.310Z,28.35
2018-06-30T12:22:00.842Z,28.00
2018-06-30T12:24:29.338Z,29.24
2018-06-30T12:26:57.842Z,29.58
2018-06-30T12:29:26.400Z,28.43
2018-06-30T12:31:54.929Z,28.50
2018-06-30T12:34:23.485Z,28.87
2018-06-30T12:36:52.003Z,29.67
2018-06-30T12:39:20.587Z,29.48
2018-06-30T12:41:49.337Z,28.55
2018-06-30T12:44:17.852Z,28.17
2018-06-30T12:46:46.333Z,27.81
2018-06-30T12:49:14.838Z,27.74
2018-06-30T12:51:43.320Z,28.46
2018-06-30T12:54:11.898Z,28.48
2018-06-30T12:56:40.383Z,28.37
2018-06-30T12:59:08.901Z,28.78
2018-06-30T13:01:37.479Z,28.14
2018-06-30T13:04:06.169Z,27.93
2018-06-30T13:06:34.914Z,29.07
2018-06-30T13:09:03.944Z,28.57
2018-06-30T13:11:32.425Z,28.77
2018-06-30T13:14:00.905Z,29.45
2018-06-30T13:16:29.524Z,29.31
2018-06-30T13:18:57.984Z,28.76
2018-06-30T13:21:26.958Z,28.89
2018-06-30T13:23:55.465Z,29.08
2018-06-30T13:26:23.974Z,29.11
2018-06-30T13:28:52.693Z,29.20
2018-06-30T13:31:21.209Z,28.14
2018-06-30T13:33:49.726Z,28.53
2018-06-30T13:36:18.268Z,29.10
2018-06-30T13:38:46.879Z,28.70
2018-06-30T13:41:15.404Z,28.31
2018-06-30T13:43:43.995Z,28.95
2018-06-30T13:46:12.509Z,28.73
2018-06-30T13:48:41.045Z,28.56
2018-06-30T13:51:09.593Z,28.91
2018-06-30T13:53:38.134Z,28.56
2018-06-30T13:56:07.173Z,28.80
2018-06-30T13:58:35.714Z,28.58
2018-06-30T14:01:04.728Z,28.75
2018-06-30T14:03:33.258Z,28.06
2018-06-30T14:06:01.830Z,28.49
2018-06-30T14:08:30.370Z,27.97
2018-06-30T14:10:58.892Z,27.77
2018-06-30T14:13:27.435Z,27.88
2018-06-30T14:15:55.906Z,27.89
2018-06-30T14:18:24.457Z,28.17
2018-06-30T14:20:53.317Z,28.06
2018-06-30T14:23:21.881Z,28.29
2018-06-30T14:25:50.395Z,27.89
2018-06-30T14:28:18.982Z,28.42
2018-06-30T14:30:47.458Z,28.50
2018-06-30T14:33:15.970Z,28.44
2018-06-30T14:35:44.541Z,28.58
2018-06-30T14:38:13.049Z,28.42
2018-06-30T14:40:41.545Z,27.62
2018-06-30T14:43:10.272Z,28.31
2018-06-30T14:45:38.766Z,27.53
2018-06-30T14:48:07.242Z,28.24
2018-06-30T14:50:35.946Z,28.21
2018-06-30T14:53:04.506Z,30.01
2018-06-30T14:55:33.058Z,28.54
2018-06-30T14:58:01.618Z,28.03
2018-06-30T15:00:30.113Z,27.88
2018-06-30T15:02:58.618Z,27.83
2018-06-30T15:05:27.346Z,27.42
2018-06-30T15:07:55.890Z,28.11
2018-06-30T15:10:24.410Z,27.43
2018-06-30T15:12:52.998Z,27.89
2018-06-30T15:15:21.494Z,27.00
2018-06-30T15:17:50.070Z,26.75
2018-06-30T15:20:18.651Z,27.24
2018-06-30T15:22:47.242Z,27.05
2018-06-30T15:25:15.777Z,27.07
2018-06-30T15:27:44.342Z,27.45
2018-06-30T15:30:12.846Z,27.37
2018-06-30T15:32:41.443Z,27.67
2018-06-30T15:35:09.959Z,26.69
2018-06-30T15:37:38.432Z,26.26
2018-06-30T15:40:07.661Z,26.78
2018-06-30T15:42:36.182Z,26.91
2018-06-30T15:45:05.937Z,27.66
2018-06-30T15:47:34.925Z,28.37
2018-06-30T15:50:03.476Z,27.80
2018-06-30T15:52:32.186Z,27.95
2018-06-30T15:55:00.821Z,27.36
2018-06-30T15:57:29.290Z,27.45
2018-06-30T15:59:57.781Z,28.12
2018-06-30T16:02:26.347Z,27.92
2018-06-30T16:04:54.861Z,28.19
2018-06-30T16:07:23.566Z,27.97
2018-06-30T16:09:52.505Z,29.26
2018-06-30T16:12:21.003Z,28.43
2018-06-30T16:14:49.646Z,28.10
2018-06-30T16:17:18.141Z,28.56
2018-06-30T16:19:46.638Z,29.77
2018-06-30T16:22:15.121Z,28.39
2018-06-30T16:24:43.629Z,28.80
2018-06-30T16:27:12.139Z,29.42
2018-06-30T16:29:40.649Z,28.19
2018-06-30T16:32:09.171Z,28.94
2018-06-30T16:34:37.700Z,28.95
2018-06-30T16:37:06.223Z,29.01
2018-06-30T16:39:34.726Z,28.67
2018-06-30T16:42:03.325Z,29.15
2018-06-30T16:44:32.449Z,29.12
2018-06-30T16:47:00.991Z,28.43
2018-06-30T16:49:29.663Z,28.53
2018-06-30T16:51:58.218Z,28.04
2018-06-30T16:54:26.878Z,28.56
2018-06-30T16:56:55.382Z,28.55
2018-06-30T16:59:23.885Z,28.72
2018-06-30T17:01:52.424Z,28.64
2018-06-30T17:04:21.273Z,28.89
2018-06-30T17:06:49.894Z,28.36
2018-06-30T17:09:18.388Z,28.99
2018-06-30T17:11:46.910Z,28.53
2018-06-30T17:14:15.428Z,28.77
2018-06-30T17:16:43.914Z,28.89
2018-06-30T17:19:12.431Z,29.32
2018-06-30T17:21:40.918Z,28.85
2018-06-30T17:24:09.531Z,29.48
2018-06-30T17:26:38.042Z,29.12
2018-06-30T17:29:06.574Z,29.43
2018-06-30T17:31:35.082Z,29.40
2018-06-30T17:34:03.591Z,29.89
2018-06-30T17:36:32.125Z,29.31
2018-06-30T17:39:00.605Z,29.73
2018-06-30T17:41:29.481Z,29.79
2018-06-30T17:43:57.953Z,29.62
2018-06-30T17:46:26.480Z,29.65
2018-06-30T17:48:55.184Z,29.62
2018-06-30T17:51:23.742Z,29.44
2018-06-30T17:53:52.358Z,28.87
2018-06-30T17:56:20.865Z,28.48
2018-06-30T17:58:49.775Z,28.14
2018-06-30T18:01:18.289Z,27.89
2018-06-30T18:03:46.805Z,27.20
2018-06-30T18:06:15.392Z,27.68
2018-06-30T18:08:43.885Z,27.54
2018-06-30T18:11:12.354Z,27.11
2018-06-30T18:13:41.356Z,26.78
2018-06-30T18:16:09.887Z,26.58
2018-06-30T18:18:38.567Z,25.90
2018-06-30T18:21:07.122Z,26.33
2018-06-30T18:23:35.671Z,26.13
2018-06-30T18:26:04.206Z,26.43
2018-06-30T18:28:32.763Z,28.33
2018-06-30T18:31:01.285Z,28.59
2018-06-30T18:33:29.902Z,29.08
2018-06-30T18:35:58.421Z,28.81
2018-06-30T18:38:26.901Z,29.02
2018-06-30T18:40:55.526Z,30.01
2018-06-30T18:43:24.036Z,30.03
2018-06-30T18:45:52.515Z,29.71
2018-06-30T18:48:21.544Z,30.18
2018-06-30T18:50:50.022Z,29.87
2018-06-30T18:53:18.496Z,30.33
2018-06-30T18:55:46.989Z,29.84
2018-06-30T18:58:15.714Z,30.68
2018-06-30T19:00:44.189Z,30.59
2018-06-30T19:03:12.707Z,30.21
2018-06-30T19:05:41.585Z,29.51
2018-06-30T19:08:10.144Z,29.00
2018-06-30T19:10:38.969Z,28.75
2018-06-30T19:13:07.529Z,28.62
2018-06-30T19:15:36.041Z,29.00
2018-06-30T19:18:04.580Z,29.90
2018-06-30T19:20:33.123Z,28.97
2018-06-30T19:23:01.593Z,28.64
2018-06-30T19:25:30.578Z,29.48
2018-06-30T19:27:59.048Z,29.79
2018-06-30T19:30:27.713Z,29.61
2018-06-30T19:32:56.328Z,28.76
2018-06-30T19:35:30.257Z,30.00
2018-06-30T19:37:58.781Z,30.02
2018-06-30T19:40:27.774Z,31.96
2018-06-30T19:42:56.238Z,30.17
2018-06-30T19:45:25.179Z,31.73
2018-06-30T19:47:53.889Z,31.40
2018-06-30T19:50:22.394Z,31.97
2018-06-30T19:52:51.005Z,33.22
2018-06-30T19:55:20.107Z,32.60
2018-06-30T19:57:48.717Z,32.33
2018-06-30T20:00:17.233Z,33.66
2018-06-30T20:02:45.746Z,33.52
2018-06-30T20:05:14.295Z,33.55
2018-06-30T20:07:48.222Z,33.77
2018-06-30T20:10:16.825Z,33.66
2018-06-30T20:12:45.565Z,34.80
2018-06-30T20:15:14.355Z,35.37
2018-06-30T20:17:42.997Z,35.65
2018-06-30T20:20:12.026Z,35.67
2018-06-30T20:22:40.501Z,35.48
2018-06-30T20:25:09.193Z,34.54
2018-06-30T20:27:37.687Z,34.75
2018-06-30T20:30:06.801Z,34.60
2018-06-30T20:32:35.323Z,34.34
2018-06-30T20:35:03.872Z,34.92
2018-06-30T20:37:32.426Z,35.45
2018-06-30T20:40:00.941Z,35.75
2018-06-30T20:42:29.459Z,34.97
2018-06-30T20:44:58.072Z,35.22
2018-06-30T20:47:26.619Z,34.86
2018-06-30T20:49:55.134Z,35.63
2018-06-30T20:52:23.710Z,35.54
2018-06-30T20:54:52.169Z,36.13
2018-06-30T20:57:20.865Z,35.83
2018-06-30T20:59:49.460Z,36.14
2018-06-30T21:02:17.973Z,36.59
2018-06-30T21:04:46.861Z,36.44
2018-06-30T21:07:15.365Z,36.43
2018-06-30T21:09:43.860Z,35.98
2018-06-30T21:12:12.394Z,36.76
2018-06-30T21:14:40.929Z,36.81
2018-06-30T21:17:09.465Z,37.69
2018-06-30T21:19:38.433Z,37.94
2018-06-30T21:22:07.368Z,37.41
2018-06-30T21:24:36.256Z,37.07
2018-06-30T21:27:05.275Z,37.97
2018-06-30T21:29:33.831Z,37.14
2018-06-30T21:32:02.493Z,37.79
2018-06-30T21:34:31.457Z,38.18
2018-06-30T21:37:01.796Z,38.04
2018-06-30T21:39:30.301Z,37.73
2018-06-30T21:41:58.821Z,38.61
2018-06-30T21:44:27.729Z,38.75
2018-06-30T21:46:56.245Z,39.16
2018-06-30T21:49:24.729Z,39.22
2018-06-30T21:51:53.402Z,38.90
2018-06-30T21:54:21.929Z,39.76
2018-06-30T21:56:50.776Z,39.21
2018-06-30T21:59:19.438Z,39.16
2018-06-30T22:01:47.991Z,39.20
2018-06-30T22:04:16.549Z,39.87
2018-06-30T22:06:45.042Z,39.11
2018-06-30T22:09:13.717Z,39.35
2018-06-30T22:11:42.181Z,39.76
2018-06-30T22:14:10.673Z,40.27
2018-06-30T22:16:39.242Z,40.19
2018-06-30T22:19:07.870Z,39.68
2018-06-30T22:21:36.368Z,40.15
2018-06-30T22:24:04.917Z,40.42
2018-06-30T22:26:33.562Z,40.26
2018-06-30T22:29:03.117Z,40.23
2018-06-30T22:31:31.709Z,40.56
2018-06-30T22:34:00.259Z,40.55
2018-06-30T22:36:28.761Z,41.16
2018-06-30T22:38:57.363Z,41.67
2018-06-30T22:41:25.910Z,41.94
2018-06-30T22:43:54.385Z,41.66
2018-06-30T22:46:23.264Z,41.11
2018-06-30T22:48:51.895Z,42.17
2018-06-30T22:51:20.405Z,41.60
2018-06-30T22:53:48.986Z,42.61
2018-06-30T22:56:17.489Z,41.06
2018-06-30T22:58:45.997Z,41.69
2018-06-30T23:01:14.529Z,42.00
2018-06-30T23:03:43.063Z,41.27
2018-06-30T23:06:11.557Z,42.36
2018-06-30T23:08:45.949Z,42.05
2018-06-30T23:11:14.449Z,41.67
2018-06-30T23:13:42.919Z,42.19
2018-06-30T23:16:11.493Z,42.07
2018-06-30T23:18:40.862Z,42.68
2018-06-30T23:21:09.329Z,42.28
2018-06-30T23:23:37.805Z,42.21
2018-06-30T23:26:06.445Z,42.20
2018-06-30T23:28:34.941Z,42.44
2018-06-30T23:31:03.513Z,42.61
2018-06-30T23:33:32.234Z,42.97
2018-06-30T23:36:00.789Z,43.30
2018-06-30T23:38:29.349Z,42.89
2018-06-30T23:40:57.877Z,43.13
2018-06-30T23:43:26.495Z,42.66
2018-06-30T23:45:55.353Z,42.44
2018-06-30T23:48:23.930Z,43.16
2018-06-30T23:50:52.421Z,43.22
2018-06-30T23:53:20.929Z,43.22
2018-06-30T23:55:49.550Z,43.45
2018-06-30T23:58:18.054Z,42.95
